sensor_id;sensor_type;location;lat;lon;timestamp;pressure;altitude;pressure_sealevel;temperature;humidity
21779;BME280;11050;52.222;20.916;2023-03-18T00:00:20;100682.53;;;5.33;54.52
21779;BME280;11050;52.222;20.916;2023-03-18T00:02:47;100671.00;;;5.31;54.53
21779;BME280;11050;52.222;20.916;2023-03-18T00:05:14;100674.97;;;5.35;54.10
21779;BME280;11050;52.222;20.916;2023-03-18T00:07:41;100675.63;;;5.37;54.75
21779;BME280;11050;52.222;20.916;2023-03-18T00:10:09;100671.63;;;5.33;54.79
21779;BME280;11050;52.222;20.916;2023-03-18T00:12:38;100668.50;;;5.29;54.25
21779;BME280;11050;52.222;20.916;2023-03-18T00:15:07;100677.94;;;5.33;54.89
21779;BME280;11050;52.222;20.916;2023-03-18T00:17:34;100662.41;;;5.27;54.85
21779;BME280;11050;52.222;20.916;2023-03-18T00:20:00;100657.59;;;5.23;54.85
21779;BME280;11050;52.222;20.916;2023-03-18T00:22:35;100675.41;;;5.25;53.90
21779;BME280;11050;52.222;20.916;2023-03-18T00:25:04;100675.19;;;5.27;53.70
21779;BME280;11050;52.222;20.916;2023-03-18T00:27:30;100660.13;;;5.18;54.61
21779;BME280;11050;52.222;20.916;2023-03-18T00:29:56;100645.00;;;5.15;55.34
21779;BME280;11050;52.222;20.916;2023-03-18T00:32:25;100659.25;;;5.17;55.41
21779;BME280;11050;52.222;20.916;2023-03-18T00:34:53;100658.22;;;5.18;55.27
21779;BME280;11050;52.222;20.916;2023-03-18T00:37:20;100652.78;;;5.18;54.81
21779;BME280;11050;52.222;20.916;2023-03-18T00:40:11;100647.97;;;5.20;53.97
21779;BME280;11050;52.222;20.916;2023-03-18T00:42:42;100646.09;;;5.14;54.00
21779;BME280;11050;52.222;20.916;2023-03-18T00:45:15;100634.31;;;5.07;55.36
21779;BME280;11050;52.222;20.916;2023-03-18T00:47:42;100628.03;;;5.13;55.05
21779;BME280;11050;52.222;20.916;2023-03-18T00:50:10;100635.41;;;5.13;54.58
21779;BME280;11050;52.222;20.916;2023-03-18T00:52:36;100638.97;;;5.07;55.15
21779;BME280;11050;52.222;20.916;2023-03-18T00:55:03;100633.91;;;5.04;54.09
21779;BME280;11050;52.222;20.916;2023-03-18T00:57:29;100627.66;;;5.03;55.36
21779;BME280;11050;52.222;20.916;2023-03-18T00:59:56;100631.81;;;5.06;54.56
21779;BME280;11050;52.222;20.916;2023-03-18T01:02:24;100626.38;;;5.06;54.78
21779;BME280;11050;52.222;20.916;2023-03-18T01:04:50;100624.50;;;5.06;54.48
21779;BME280;11050;52.222;20.916;2023-03-18T01:07:16;100634.97;;;5.03;54.89
21779;BME280;11050;52.222;20.916;2023-03-18T01:09:41;100622.59;;;5.00;54.12
21779;BME280;11050;52.222;20.916;2023-03-18T01:12:10;100622.81;;;4.99;54.38
21779;BME280;11050;52.222;20.916;2023-03-18T01:14:38;100607.09;;;4.94;54.45
21779;BME280;11050;52.222;20.916;2023-03-18T01:17:06;100611.72;;;4.94;54.91
21779;BME280;11050;52.222;20.916;2023-03-18T01:19:34;100604.59;;;4.99;53.87
21779;BME280;11050;52.222;20.916;2023-03-18T01:22:01;100608.78;;;5.02;55.02
21779;BME280;11050;52.222;20.916;2023-03-18T01:24:27;100599.97;;;5.00;53.66
21779;BME280;11050;52.222;20.916;2023-03-18T01:26:53;100592.88;;;4.99;53.52
21779;BME280;11050;52.222;20.916;2023-03-18T01:29:21;100595.19;;;4.95;54.34
21779;BME280;11050;52.222;20.916;2023-03-18T01:31:49;100599.56;;;4.96;54.06
21779;BME280;11050;52.222;20.916;2023-03-18T01:34:16;100607.94;;;4.95;54.43
21779;BME280;11050;52.222;20.916;2023-03-18T01:36:42;100598.94;;;5.01;54.14
21779;BME280;11050;52.222;20.916;2023-03-18T01:39:08;100602.91;;;4.98;53.75
21779;BME280;11050;52.222;20.916;2023-03-18T01:41:35;100599.78;;;4.95;54.06
21779;BME280;11050;52.222;20.916;2023-03-18T01:44:01;100590.75;;;4.94;52.81
21779;BME280;11050;52.222;20.916;2023-03-18T01:46:42;100593.28;;;4.96;53.23
21779;BME280;11050;52.222;20.916;2023-03-18T01:49:36;100596.03;;;4.96;52.95
21779;BME280;11050;52.222;20.916;2023-03-18T01:52:10;100585.53;;;4.99;53.01
21779;BME280;11050;52.222;20.916;2023-03-18T01:54:45;100591.19;;;4.98;53.38
21779;BME280;11050;52.222;20.916;2023-03-18T01:57:14;100593.69;;;4.93;52.91
21779;BME280;11050;52.222;20.916;2023-03-18T01:59:44;100592.25;;;4.97;53.72
21779;BME280;11050;52.222;20.916;2023-03-18T02:02:14;100585.31;;;4.94;52.57
21779;BME280;11050;52.222;20.916;2023-03-18T02:04:54;100584.06;;;4.97;52.86
21779;BME280;11050;52.222;20.916;2023-03-18T02:07:28;100597.06;;;4.95;52.76
21779;BME280;11050;52.222;20.916;2023-03-18T02:09:58;100597.06;;;4.88;53.77
21779;BME280;11050;52.222;20.916;2023-03-18T02:12:31;100591.63;;;4.88;53.46
21779;BME280;11050;52.222;20.916;2023-03-18T02:15:00;100595.19;;;4.82;54.39
21779;BME280;11050;52.222;20.916;2023-03-18T02:17:32;100585.53;;;4.79;53.33
21779;BME280;11050;52.222;20.916;2023-03-18T02:22:54;100581.97;;;4.79;54.30
21779;BME280;11050;52.222;20.916;2023-03-18T02:25:46;100584.69;;;4.79;53.88
21779;BME280;11050;52.222;20.916;2023-03-18T02:28:22;100591.81;;;4.80;53.38
21779;BME280;11050;52.222;20.916;2023-03-18T02:30:54;100580.28;;;4.71;53.80
21779;BME280;11050;52.222;20.916;2023-03-18T02:33:26;100584.50;;;4.67;53.55
21779;BME280;11050;52.222;20.916;2023-03-18T02:36:02;100587.63;;;4.64;54.97
21779;BME280;11050;52.222;20.916;2023-03-18T02:38:29;100577.59;;;4.65;54.93
21779;BME280;11050;52.222;20.916;2023-03-18T02:40:54;100580.31;;;4.65;54.59
21779;BME280;11050;52.222;20.916;2023-03-18T02:43:32;100580.09;;;4.66;55.13
21779;BME280;11050;52.222;20.916;2023-03-18T02:46:35;100596.63;;;4.58;54.27
21779;BME280;11050;52.222;20.916;2023-03-18T02:49:06;100584.91;;;4.58;54.42
21779;BME280;11050;52.222;20.916;2023-03-18T02:51:34;100585.75;;;4.52;55.96
21779;BME280;11050;52.222;20.916;2023-03-18T02:54:10;100584.47;;;4.54;54.81
21779;BME280;11050;52.222;20.916;2023-03-18T02:56:37;100582.38;;;4.50;55.58
21779;BME280;11050;52.222;20.916;2023-03-18T02:59:04;100570.44;;;4.51;55.65
21779;BME280;11050;52.222;20.916;2023-03-18T03:01:32;100569.41;;;4.52;55.04
21779;BME280;11050;52.222;20.916;2023-03-18T03:03:58;100576.53;;;4.46;55.05
21779;BME280;11050;52.222;20.916;2023-03-18T03:06:24;100563.13;;;4.45;55.52
21779;BME280;11050;52.222;20.916;2023-03-18T03:08:50;100570.88;;;4.48;55.72
21779;BME280;11050;52.222;20.916;2023-03-18T03:11:18;100564.59;;;4.47;55.45
21779;BME280;11050;52.222;20.916;2023-03-18T03:13:44;100555.59;;;4.40;55.04
21779;BME280;11050;52.222;20.916;2023-03-18T03:16:13;100559.78;;;4.43;55.32
21779;BME280;11050;52.222;20.916;2023-03-18T03:18:40;100566.91;;;4.37;55.68
21779;BME280;11050;52.222;20.916;2023-03-18T03:21:07;100561.03;;;4.40;55.55
21779;BME280;11050;52.222;20.916;2023-03-18T03:23:34;100560.81;;;4.42;55.40
21779;BME280;11050;52.222;20.916;2023-03-18T03:26:02;100555.78;;;4.45;54.84
21779;BME280;11050;52.222;20.916;2023-03-18T03:28:29;100553.28;;;4.37;54.60
21779;BME280;11050;52.222;20.916;2023-03-18T03:30:58;100559.97;;;4.35;55.30
21779;BME280;11050;52.222;20.916;2023-03-18T03:33:25;100556.63;;;4.39;55.11
21779;BME280;11050;52.222;20.916;2023-03-18T03:35:51;100555.38;;;4.35;55.91
21779;BME280;11050;52.222;20.916;2023-03-18T03:38:18;100552.66;;;4.35;55.60
21779;BME280;11050;52.222;20.916;2023-03-18T03:40:45;100557.66;;;4.32;54.58
21779;BME280;11050;52.222;20.916;2023-03-18T03:43:14;100558.09;;;4.29;54.83
21779;BME280;11050;52.222;20.916;2023-03-18T03:45:41;100549.06;;;4.28;54.40
21779;BME280;11050;52.222;20.916;2023-03-18T03:48:08;100558.72;;;4.31;55.38
21779;BME280;11050;52.222;20.916;2023-03-18T03:50:35;100556.00;;;4.31;54.98
21779;BME280;11050;52.222;20.916;2023-03-18T03:53:02;100562.50;;;4.30;55.10
21779;BME280;11050;52.222;20.916;2023-03-18T03:55:30;100569.19;;;4.27;54.42
21779;BME280;11050;52.222;20.916;2023-03-18T03:57:56;100563.09;;;4.32;54.26
21779;BME280;11050;52.222;20.916;2023-03-18T04:00:23;100564.38;;;4.29;54.92
21779;BME280;11050;52.222;20.916;2023-03-18T04:02:51;100578.19;;;4.28;55.51
21779;BME280;11050;52.222;20.916;2023-03-18T04:05:20;100574.81;;;4.19;55.22
21779;BME280;11050;52.222;20.916;2023-03-18T04:07:47;100572.28;;;4.18;54.88
21779;BME280;11050;52.222;20.916;2023-03-18T04:10:16;100564.56;;;4.15;54.57
21779;BME280;11050;52.222;20.916;2023-03-18T04:12:43;100575.00;;;4.18;55.16
21779;BME280;11050;52.222;20.916;2023-03-18T04:15:11;100575.66;;;4.20;54.76
21779;BME280;11050;52.222;20.916;2023-03-18T04:17:39;100577.72;;;4.18;55.22
21779;BME280;11050;52.222;20.916;2023-03-18T04:20:05;100566.81;;;4.11;54.36
21779;BME280;11050;52.222;20.916;2023-03-18T04:22:32;100559.09;;;4.08;55.50
21779;BME280;11050;52.222;20.916;2023-03-18T04:24:58;100565.97;;;4.04;55.40
21779;BME280;11050;52.222;20.916;2023-03-18T04:27:25;100571.84;;;4.01;54.86
21779;BME280;11050;52.222;20.916;2023-03-18T04:29:53;100573.50;;;3.96;55.22
21779;BME280;11050;52.222;20.916;2023-03-18T04:32:19;100578.50;;;3.99;55.01
21779;BME280;11050;52.222;20.916;2023-03-18T04:34:45;100575.38;;;3.95;54.62
21779;BME280;11050;52.222;20.916;2023-03-18T04:37:11;100573.50;;;3.96;55.47
21779;BME280;11050;52.222;20.916;2023-03-18T04:39:40;100582.69;;;3.95;55.10
21779;BME280;11050;52.222;20.916;2023-03-18T04:42:06;100581.41;;;3.91;55.09
21779;BME280;11050;52.222;20.916;2023-03-18T04:44:32;100581.84;;;3.94;55.72
21779;BME280;11050;52.222;20.916;2023-03-18T04:46:59;100578.69;;;3.91;55.04
21779;BME280;11050;52.222;20.916;2023-03-18T04:49:25;100578.69;;;3.91;55.60
21779;BME280;11050;52.222;20.916;2023-03-18T04:51:51;100595.22;;;3.89;55.26
21779;BME280;11050;52.222;20.916;2023-03-18T04:54:17;100584.13;;;3.91;54.84
21779;BME280;11050;52.222;20.916;2023-03-18T04:56:42;100594.81;;;3.92;55.75
21779;BME280;11050;52.222;20.916;2023-03-18T04:59:09;100582.88;;;3.93;55.65
21779;BME280;11050;52.222;20.916;2023-03-18T05:01:35;100581.66;;;3.96;54.73
21779;BME280;11050;52.222;20.916;2023-03-18T05:04:01;100578.94;;;3.96;55.30
21779;BME280;11050;52.222;20.916;2023-03-18T05:06:29;100571.16;;;3.93;55.23
21779;BME280;11050;52.222;20.916;2023-03-18T05:08:57;100577.50;;;4.00;54.40
21779;BME280;11050;52.222;20.916;2023-03-18T05:11:24;100574.34;;;4.03;54.61
21779;BME280;11050;52.222;20.916;2023-03-18T05:13:50;100576.00;;;4.04;54.61
21779;BME280;11050;52.222;20.916;2023-03-18T05:16:17;100574.78;;;4.06;54.66
21779;BME280;11050;52.222;20.916;2023-03-18T05:18:43;100581.91;;;4.14;55.35
21779;BME280;11050;52.222;20.916;2023-03-18T05:21:10;100570.22;;;4.20;54.33
21779;BME280;11050;52.222;20.916;2023-03-18T05:23:37;100574.41;;;4.29;53.91
21779;BME280;11050;52.222;20.916;2023-03-18T05:26:05;100562.06;;;4.33;54.16
21779;BME280;11050;52.222;20.916;2023-03-18T05:28:32;100569.81;;;4.49;53.00
21779;BME280;11050;52.222;20.916;2023-03-18T05:30:59;100562.09;;;4.52;53.11
21779;BME280;11050;52.222;20.916;2023-03-18T05:33:25;100567.31;;;4.60;52.79
21779;BME280;11050;52.222;20.916;2023-03-18T05:35:50;100572.56;;;4.68;52.73
21779;BME280;11050;52.222;20.916;2023-03-18T05:38:17;100559.78;;;4.75;52.77
21779;BME280;11050;52.222;20.916;2023-03-18T05:40:43;100559.78;;;4.82;52.56
21779;BME280;11050;52.222;20.916;2023-03-18T05:43:09;100558.94;;;4.88;51.88
21779;BME280;11050;52.222;20.916;2023-03-18T05:45:36;100559.34;;;4.98;51.58
21779;BME280;11050;52.222;20.916;2023-03-18T05:48:03;100563.09;;;5.10;50.92
21779;BME280;11050;52.222;20.916;2023-03-18T05:50:38;100573.56;;;5.20;51.51
21779;BME280;11050;52.222;20.916;2023-03-18T05:53:05;100558.66;;;5.29;51.14
21779;BME280;11050;52.222;20.916;2023-03-18T05:55:32;100575.59;;;5.44;50.71
21779;BME280;11050;52.222;20.916;2023-03-18T05:57:59;100561.72;;;5.58;49.24
21779;BME280;11050;52.222;20.916;2023-03-18T06:00:27;100568.78;;;5.72;49.45
21779;BME280;11050;52.222;20.916;2023-03-18T06:02:56;100563.53;;;5.84;48.77
21779;BME280;11050;52.222;20.916;2023-03-18T06:05:23;100566.19;;;5.97;47.40
21779;BME280;11050;52.222;20.916;2023-03-18T06:07:50;100560.91;;;6.09;46.99
21779;BME280;11050;52.222;20.916;2023-03-18T06:10:17;100553.66;;;6.21;46.81
21779;BME280;11050;52.222;20.916;2023-03-18T06:12:44;100554.19;;;6.36;46.90
21779;BME280;11050;52.222;20.916;2023-03-18T06:15:11;100559.94;;;6.52;46.89
21779;BME280;11050;52.222;20.916;2023-03-18T06:17:38;100556.97;;;6.60;45.16
21779;BME280;11050;52.222;20.916;2023-03-18T06:20:08;100560.66;;;6.72;45.26
21779;BME280;11050;52.222;20.916;2023-03-18T06:22:36;100562.69;;;6.77;44.72
21779;BME280;11050;52.222;20.916;2023-03-18T06:25:03;100555.47;;;6.89;44.89
21779;BME280;11050;52.222;20.916;2023-03-18T06:27:33;100558.34;;;6.94;43.92
21779;BME280;11050;52.222;20.916;2023-03-18T06:29:59;100560.69;;;6.91;44.42
21779;BME280;11050;52.222;20.916;2023-03-18T06:32:30;100560.88;;;6.96;43.95
21779;BME280;11050;52.222;20.916;2023-03-18T06:34:56;100561.47;;;6.98;43.85
21779;BME280;11050;52.222;20.916;2023-03-18T06:37:22;100565.41;;;7.02;43.43
21779;BME280;11050;52.222;20.916;2023-03-18T06:39:48;100565.53;;;7.13;44.18
21779;BME280;11050;52.222;20.916;2023-03-18T06:42:14;100568.13;;;7.26;42.73
21779;BME280;11050;52.222;20.916;2023-03-18T06:44:40;100558.88;;;7.27;42.86
21779;BME280;11050;52.222;20.916;2023-03-18T06:47:09;100556.28;;;7.32;42.42
21779;BME280;11050;52.222;20.916;2023-03-18T06:49:35;100568.44;;;7.36;43.19
21779;BME280;11050;52.222;20.916;2023-03-18T06:52:01;100559.78;;;7.39;43.31
21779;BME280;11050;52.222;20.916;2023-03-18T06:54:27;100558.88;;;7.45;42.94
21779;BME280;11050;52.222;20.916;2023-03-18T06:56:53;100570.44;;;7.47;42.13
21779;BME280;11050;52.222;20.916;2023-03-18T06:59:19;100573.00;;;7.60;42.83
21779;BME280;11050;52.222;20.916;2023-03-18T07:01:48;100586.25;;;7.63;42.14
21779;BME280;11050;52.222;20.916;2023-03-18T07:04:14;100578.78;;;7.71;41.74
21779;BME280;11050;52.222;20.916;2023-03-18T07:06:40;100580.16;;;7.80;42.08
21779;BME280;11050;52.222;20.916;2023-03-18T07:09:05;100572.44;;;7.88;41.71
21779;BME280;11050;52.222;20.916;2023-03-18T07:11:32;100566.97;;;7.88;41.63
21779;BME280;11050;52.222;20.916;2023-03-18T07:13:58;100576.34;;;7.99;41.57
21779;BME280;11050;52.222;20.916;2023-03-18T07:16:23;100584.97;;;8.14;41.09
21779;BME280;11050;52.222;20.916;2023-03-18T07:18:49;100578.25;;;8.28;40.29
21779;BME280;11050;52.222;20.916;2023-03-18T07:21:15;100582.81;;;8.34;40.32
21779;BME280;11050;52.222;20.916;2023-03-18T07:23:41;100582.94;;;8.27;40.20
21779;BME280;11050;52.222;20.916;2023-03-18T07:26:07;100579.84;;;8.35;40.11
21779;BME280;11050;52.222;20.916;2023-03-18T07:28:33;100592.78;;;8.46;40.28
21779;BME280;11050;52.222;20.916;2023-03-18T07:30:59;100587.81;;;8.67;40.34
21779;BME280;11050;52.222;20.916;2023-03-18T07:33:25;100588.78;;;8.72;39.60
21779;BME280;11050;52.222;20.916;2023-03-18T07:35:51;100591.53;;;8.72;39.08
21779;BME280;11050;52.222;20.916;2023-03-18T07:38:17;100591.03;;;8.75;39.44
21779;BME280;11050;52.222;20.916;2023-03-18T07:40:43;100595.47;;;8.76;39.38
21779;BME280;11050;52.222;20.916;2023-03-18T07:43:09;100589.75;;;8.78;39.30
21779;BME280;11050;52.222;20.916;2023-03-18T07:45:34;100594.84;;;8.74;39.16
21779;BME280;11050;52.222;20.916;2023-03-18T07:48:00;100596.63;;;8.69;39.03
21779;BME280;11050;52.222;20.916;2023-03-18T07:50:26;100591.03;;;8.75;39.47
21779;BME280;11050;52.222;20.916;2023-03-18T07:52:52;100590.22;;;8.86;39.30
21779;BME280;11050;52.222;20.916;2023-03-18T07:55:18;100597.88;;;8.96;38.87
21779;BME280;11050;52.222;20.916;2023-03-18T07:57:44;100584.75;;;8.98;39.39
21779;BME280;11050;52.222;20.916;2023-03-18T08:00:11;100579.19;;;9.16;38.90
21779;BME280;11050;52.222;20.916;2023-03-18T08:02:39;100591.22;;;9.26;37.93
21779;BME280;11050;52.222;20.916;2023-03-18T08:05:05;100585.50;;;9.28;38.04
21779;BME280;11050;52.222;20.916;2023-03-18T08:07:35;100588.38;;;9.21;38.38
21779;BME280;11050;52.222;20.916;2023-03-18T08:10:01;100582.66;;;9.34;38.02
21779;BME280;11050;52.222;20.916;2023-03-18T08:12:27;100580.00;;;9.39;37.94
21779;BME280;11050;52.222;20.916;2023-03-18T08:14:53;100589.91;;;9.52;37.59
21779;BME280;11050;52.222;20.916;2023-03-18T08:17:19;100583.69;;;9.68;37.47
21779;BME280;11050;52.222;20.916;2023-03-18T08:19:45;100577.81;;;9.88;37.60
21779;BME280;11050;52.222;20.916;2023-03-18T08:22:13;100571.28;;;10.05;37.15
21779;BME280;11050;52.222;20.916;2023-03-18T08:24:40;100582.00;;;10.07;36.47
21779;BME280;11050;52.222;20.916;2023-03-18T08:27:06;100579.25;;;10.18;36.50
21779;BME280;11050;52.222;20.916;2023-03-18T08:29:32;100576.47;;;10.30;35.38
21779;BME280;11050;52.222;20.916;2023-03-18T08:31:58;100563.91;;;10.34;36.22
21779;BME280;11050;52.222;20.916;2023-03-18T08:34:24;100574.84;;;10.45;35.94
21779;BME280;11050;52.222;20.916;2023-03-18T08:36:50;100569.44;;;10.50;35.61
21779;BME280;11050;52.222;20.916;2023-03-18T08:39:17;100562.63;;;10.53;35.38
21779;BME280;11050;52.222;20.916;2023-03-18T08:41:43;100560.47;;;10.55;35.39
21779;BME280;11050;52.222;20.916;2023-03-18T08:44:09;100562.31;;;10.66;34.98
21779;BME280;11050;52.222;20.916;2023-03-18T08:46:39;100568.16;;;10.70;35.11
21779;BME280;11050;52.222;20.916;2023-03-18T08:49:06;100556.16;;;10.59;34.29
21779;BME280;11050;52.222;20.916;2023-03-18T08:51:32;100548.31;;;10.68;34.13
21779;BME280;11050;52.222;20.916;2023-03-18T08:53:58;100557.66;;;11.00;34.73
21779;BME280;11050;52.222;20.916;2023-03-18T08:56:25;100546.16;;;11.19;33.76
21779;BME280;11050;52.222;20.916;2023-03-18T08:58:51;100549.31;;;11.11;33.83
21779;BME280;11050;52.222;20.916;2023-03-18T09:01:18;100555.34;;;11.08;33.80
21779;BME280;11050;52.222;20.916;2023-03-18T09:03:48;100551.56;;;11.14;34.56
21779;BME280;11050;52.222;20.916;2023-03-18T09:06:14;100544.13;;;11.31;34.23
21779;BME280;11050;52.222;20.916;2023-03-18T09:08:41;100536.59;;;11.43;33.66
21779;BME280;11050;52.222;20.916;2023-03-18T09:11:08;100531.84;;;11.56;33.06
21779;BME280;11050;52.222;20.916;2023-03-18T09:13:34;100538.81;;;11.63;33.14
21779;BME280;11050;52.222;20.916;2023-03-18T09:16:00;100536.22;;;11.73;33.12
21779;BME280;11050;52.222;20.916;2023-03-18T09:18:27;100539.50;;;11.70;32.43
21779;BME280;11050;52.222;20.916;2023-03-18T09:20:54;100541.09;;;11.66;32.46
21779;BME280;11050;52.222;20.916;2023-03-18T09:23:19;100533.53;;;11.62;32.54
21779;BME280;11050;52.222;20.916;2023-03-18T09:25:46;100532.00;;;11.87;33.08
21779;BME280;11050;52.222;20.916;2023-03-18T09:28:13;100543.50;;;12.06;31.87
21779;BME280;11050;52.222;20.916;2023-03-18T09:30:40;100518.34;;;12.24;32.48
21779;BME280;11050;52.222;20.916;2023-03-18T09:33:06;100530.91;;;12.36;32.26
21779;BME280;11050;52.222;20.916;2023-03-18T09:35:33;100526.94;;;12.54;31.45
21779;BME280;11050;52.222;20.916;2023-03-18T09:37:59;100524.53;;;12.63;31.61
21779;BME280;11050;52.222;20.916;2023-03-18T09:40:32;100521.13;;;12.82;31.60
21779;BME280;11050;52.222;20.916;2023-03-18T09:43:08;100524.25;;;12.96;31.29
21779;BME280;11050;52.222;20.916;2023-03-18T09:52:30;100512.03;;;13.18;30.51
21779;BME280;11050;52.222;20.916;2023-03-18T09:55:25;100516.81;;;13.33;31.05
21779;BME280;11050;52.222;20.916;2023-03-18T09:57:54;100515.47;;;13.36;30.55
21779;BME280;11050;52.222;20.916;2023-03-18T10:00:36;100515.25;;;13.47;30.34
21779;BME280;11050;52.222;20.916;2023-03-18T10:03:33;100517.81;;;13.54;30.56
21779;BME280;11050;52.222;20.916;2023-03-18T10:06:14;100510.59;;;13.53;30.59
21779;BME280;11050;52.222;20.916;2023-03-18T10:09:05;100502.41;;;13.73;29.71
21779;BME280;11050;52.222;20.916;2023-03-18T10:11:42;100500.25;;;13.90;29.52
21779;BME280;11050;52.222;20.916;2023-03-18T10:17:20;100503.13;;;14.10;27.80
21779;BME280;11050;52.222;20.916;2023-03-18T10:19:57;100494.81;;;14.15;27.45
21779;BME280;11050;52.222;20.916;2023-03-18T10:26:19;100499.22;;;14.16;26.48
21779;BME280;11050;52.222;20.916;2023-03-18T10:31:57;100491.53;;;14.23;27.52
21779;BME280;11050;52.222;20.916;2023-03-18T10:39:53;100490.47;;;14.39;27.12
21779;BME280;11050;52.222;20.916;2023-03-18T10:42:29;100476.69;;;14.64;27.41
21779;BME280;11050;52.222;20.916;2023-03-18T10:45:21;100484.41;;;14.82;27.73
21779;BME280;11050;52.222;20.916;2023-03-18T10:47:57;100488.81;;;15.08;27.59
21779;BME280;11050;52.222;20.916;2023-03-18T10:50:40;100477.47;;;15.10;26.61
21779;BME280;11050;52.222;20.916;2023-03-18T10:53:27;100472.78;;;15.15;25.41
21779;BME280;11050;52.222;20.916;2023-03-18T10:56:04;100471.88;;;15.45;26.27
21779;BME280;11050;52.222;20.916;2023-03-18T10:58:31;100471.00;;;15.60;24.85
21779;BME280;11050;52.222;20.916;2023-03-18T11:00:57;100460.22;;;15.48;25.18
21779;BME280;11050;52.222;20.916;2023-03-18T11:03:26;100466.81;;;15.72;25.89
21779;BME280;11050;52.222;20.916;2023-03-18T11:05:54;100460.41;;;15.82;26.16
21779;BME280;11050;52.222;20.916;2023-03-18T11:13:52;100456.91;;;16.54;25.56
21779;BME280;11050;52.222;20.916;2023-03-18T11:16:30;100456.06;;;16.87;25.09
21779;BME280;11050;52.222;20.916;2023-03-18T11:18:57;100459.66;;;17.16;24.76
21779;BME280;11050;52.222;20.916;2023-03-18T11:21:25;100449.13;;;17.42;24.45
21779;BME280;11050;52.222;20.916;2023-03-18T11:23:59;100453.56;;;17.66;24.29
21779;BME280;11050;52.222;20.916;2023-03-18T11:26:56;100437.16;;;17.65;23.63
21779;BME280;11050;52.222;20.916;2023-03-18T11:29:27;100440.81;;;17.84;23.03
21779;BME280;11050;52.222;20.916;2023-03-18T11:31:57;100435.84;;;18.23;23.45
21779;BME280;11050;52.222;20.916;2023-03-18T11:34:25;100436.66;;;18.61;22.70
21779;BME280;11050;52.222;20.916;2023-03-18T11:37:03;100433.34;;;18.91;21.87
21779;BME280;11050;52.222;20.916;2023-03-18T11:39:37;100433.63;;;18.89;22.38
21779;BME280;11050;52.222;20.916;2023-03-18T11:42:20;100440.88;;;19.36;20.79
21779;BME280;11050;52.222;20.916;2023-03-18T11:44:53;100434.16;;;19.51;21.09
21779;BME280;11050;52.222;20.916;2023-03-18T11:47:25;100419.41;;;20.13;21.11
21779;BME280;11050;52.222;20.916;2023-03-18T11:49:52;100426.28;;;20.65;20.32
21779;BME280;11050;52.222;20.916;2023-03-18T11:52:49;100436.94;;;21.07;19.98
21779;BME280;11050;52.222;20.916;2023-03-18T12:04:02;100427.09;;;21.88;19.84
21779;BME280;11050;52.222;20.916;2023-03-18T12:06:52;100423.63;;;21.91;19.12
21779;BME280;11050;52.222;20.916;2023-03-18T12:21:03;100412.66;;;22.89;17.66
21779;BME280;11050;52.222;20.916;2023-03-18T12:30:14;100413.03;;;23.25;17.92
21779;BME280;11050;52.222;20.916;2023-03-18T12:47:27;100407.09;;;24.02;17.24
21779;BME280;11050;52.222;20.916;2023-03-18T12:50:11;100391.75;;;24.20;16.35
21779;BME280;11050;52.222;20.916;2023-03-18T12:52:49;100393.28;;;23.88;16.99
21779;BME280;11050;52.222;20.916;2023-03-18T12:55:42;100391.56;;;23.96;17.11
21779;BME280;11050;52.222;20.916;2023-03-18T12:58:22;100394.78;;;24.35;17.15
21779;BME280;11050;52.222;20.916;2023-03-18T13:01:12;100394.03;;;24.80;16.64
21779;BME280;11050;52.222;20.916;2023-03-18T13:03:59;100385.91;;;24.99;16.54
21779;BME280;11050;52.222;20.916;2023-03-18T13:09:33;100392.81;;;25.70;15.61
21779;BME280;11050;52.222;20.916;2023-03-18T13:15:26;100395.63;;;25.82;14.92
21779;BME280;11050;52.222;20.916;2023-03-18T13:17:59;100390.13;;;25.62;15.04
21779;BME280;11050;52.222;20.916;2023-03-18T13:20:35;100391.16;;;25.57;15.08
21779;BME280;11050;52.222;20.916;2023-03-18T13:23:46;100396.47;;;26.35;14.73
21779;BME280;11050;52.222;20.916;2023-03-18T13:43:32;100370.28;;;25.70;14.31
21779;BME280;11050;52.222;20.916;2023-03-18T13:46:02;100373.03;;;24.98;14.77
21779;BME280;11050;52.222;20.916;2023-03-18T13:48:32;100364.22;;;24.34;15.26
21779;BME280;11050;52.222;20.916;2023-03-18T13:51:18;100364.44;;;23.79;16.05
21779;BME280;11050;52.222;20.916;2023-03-18T13:53:46;100364.53;;;23.33;16.03
21779;BME280;11050;52.222;20.916;2023-03-18T13:59:06;100349.25;;;22.16;17.62
21779;BME280;11050;52.222;20.916;2023-03-18T14:01:51;100358.16;;;22.09;18.17
21779;BME280;11050;52.222;20.916;2023-03-18T14:04:31;100351.66;;;21.75;18.18
21779;BME280;11050;52.222;20.916;2023-03-18T14:07:16;100343.31;;;21.27;18.08
21779;BME280;11050;52.222;20.916;2023-03-18T14:22:48;100336.78;;;22.94;17.65
21779;BME280;11050;52.222;20.916;2023-03-18T14:33:10;100333.16;;;23.89;16.57
21779;BME280;11050;52.222;20.916;2023-03-18T14:36:19;100318.78;;;23.91;16.80
21779;BME280;11050;52.222;20.916;2023-03-18T14:39:01;100317.88;;;23.78;16.09
21779;BME280;11050;52.222;20.916;2023-03-18T14:41:31;100316.88;;;23.53;16.46
21779;BME280;11050;52.222;20.916;2023-03-18T14:47:24;100319.25;;;21.74;17.77
21779;BME280;11050;52.222;20.916;2023-03-18T14:50:05;100317.50;;;21.38;18.19
21779;BME280;11050;52.222;20.916;2023-03-18T14:52:41;100314.31;;;21.14;18.30
21779;BME280;11050;52.222;20.916;2023-03-18T14:55:18;100320.53;;;20.72;18.81
21779;BME280;11050;52.222;20.916;2023-03-18T14:57:45;100315.31;;;20.26;19.92
21779;BME280;11050;52.222;20.916;2023-03-18T15:00:16;100313.47;;;19.86;20.06
21779;BME280;11050;52.222;20.916;2023-03-18T15:02:44;100317.78;;;19.56;20.66